createdAt,value
2018-06-20T00:00:48.903Z,69.70
2018-06-20T00:03:24.008Z,69.70
2018-06-20T00:05:58.924Z,69.70
2018-06-20T00:08:38.211Z,69.70
2018-06-20T00:11:13.210Z,69.70
2018-06-20T00:13:48.233Z,69.70
2018-06-20T00:16:23.624Z,69.60
2018-06-20T00:18:58.681Z,69.60
2018-06-20T00:21:33.728Z,69.60
2018-06-20T00:24:08.881Z,69.60
2018-06-20T00:26:43.832Z,69.60
2018-06-20T00:29:18.958Z,69.60
2018-06-20T00:31:54.079Z,69.60
2018-06-20T00:34:29.072Z,69.60
2018-06-20T00:37:04.280Z,69.50
2018-06-20T00:39:39.468Z,69.60
2018-06-20T00:42:14.560Z,69.50
2018-06-20T00:44:49.648Z,69.40
2018-06-20T00:47:24.828Z,69.40
2018-06-20T00:49:59.992Z,69.40
2018-06-20T00:52:35.977Z,69.40
2018-06-20T00:55:11.004Z,69.40
2018-06-20T00:57:45.980Z,69.40
2018-06-20T01:00:21.080Z,70.20
2018-06-20T01:02:56.144Z,69.40
2018-06-20T01:05:31.220Z,69.40
2018-06-20T01:08:06.360Z,69.50
2018-06-20T01:10:41.473Z,69.50
2018-06-20T01:13:16.612Z,70.20
2018-06-20T01:15:51.598Z,69.40
2018-06-20T01:18:26.575Z,69.40
2018-06-20T01:21:02.090Z,69.30
2018-06-20T01:23:37.320Z,69.40
2018-06-20T01:26:12.448Z,69.50
2018-06-20T01:28:47.407Z,69.40
2018-06-20T01:31:22.537Z,69.40
2018-06-20T01:33:57.460Z,69.40
2018-06-20T01:36:32.548Z,69.50
2018-06-20T01:39:09.149Z,69.50
2018-06-20T01:41:44.279Z,69.60
2018-06-20T01:44:19.247Z,69.70
2018-06-20T01:46:54.352Z,69.60
2018-06-20T01:49:29.316Z,69.60
2018-06-20T01:52:04.368Z,69.50
2018-06-20T01:54:39.666Z,69.40
2018-06-20T01:57:14.617Z,69.70
2018-06-20T01:59:49.692Z,70.10
2018-06-20T02:02:24.737Z,70.10
2018-06-20T02:04:59.839Z,71.60
2018-06-20T02:07:34.970Z,71.20
2018-06-20T02:10:09.948Z,71.00
2018-06-20T02:12:45.053Z,70.90
2018-06-20T02:15:21.144Z,70.60
2018-06-20T02:17:56.182Z,70.30
2018-06-20T02:20:31.283Z,70.20
2018-06-20T02:23:06.393Z,70.10
2018-06-20T02:25:41.445Z,69.90
2018-06-20T02:28:16.528Z,69.80
2018-06-20T02:30:51.525Z,69.90
2018-06-20T02:33:26.480Z,70.00
2018-06-20T02:36:05.656Z,69.90
2018-06-20T02:38:40.592Z,69.90
2018-06-20T02:41:15.672Z,69.80
2018-06-20T02:43:50.804Z,69.80
2018-06-20T02:46:25.856Z,69.60
2018-06-20T02:49:01.142Z,69.70
2018-06-20T02:51:36.084Z,69.70
2018-06-20T02:54:11.220Z,69.60
2018-06-20T02:56:46.167Z,69.70
2018-06-20T02:59:21.291Z,69.70
2018-06-20T03:01:56.850Z,69.60
2018-06-20T03:04:31.928Z,69.60
2018-06-20T03:07:06.904Z,70.60
2018-06-20T03:09:41.989Z,70.80
2018-06-20T03:12:16.980Z,70.20
2018-06-20T03:14:52.092Z,70.10
2018-06-20T03:17:27.141Z,69.80
2018-06-20T03:20:02.200Z,69.70
2018-06-20T03:22:37.275Z,69.70
2018-06-20T03:25:12.308Z,69.60
2018-06-20T03:27:47.412Z,69.70
2018-06-20T03:30:22.477Z,69.70
2018-06-20T03:32:57.461Z,69.80
2018-06-20T03:35:32.558Z,70.00
2018-06-20T03:38:07.647Z,70.30
2018-06-20T03:40:42.644Z,70.10
2018-06-20T03:43:17.781Z,69.90
2018-06-20T03:45:52.867Z,69.90
2018-06-20T03:48:27.876Z,69.80
2018-06-20T03:51:03.032Z,69.80
2018-06-20T03:53:38.248Z,69.80
2018-06-20T03:56:13.340Z,69.80
2018-06-20T03:58:48.504Z,69.70
2018-06-20T04:01:23.864Z,69.80
2018-06-20T04:03:58.996Z,69.90
2018-06-20T04:06:34.103Z,69.90
2018-06-20T04:09:12.472Z,70.10
2018-06-20T04:11:47.585Z,70.20
2018-06-20T04:14:22.752Z,70.10
2018-06-20T04:16:57.844Z,70.20
2018-06-20T04:19:32.936Z,70.30
2018-06-20T04:22:08.048Z,70.90
2018-06-20T04:24:43.184Z,70.70
2018-06-20T04:27:18.309Z,70.70
2018-06-20T04:29:53.360Z,70.90
2018-06-20T04:32:28.540Z,71.40
2018-06-20T04:35:03.644Z,72.30
2018-06-20T04:37:38.676Z,73.30
2018-06-20T04:40:13.795Z,73.10
2018-06-20T04:42:48.828Z,72.70
2018-06-20T04:45:23.923Z,73.50
2018-06-20T04:47:58.935Z,73.50
2018-06-20T04:50:33.944Z,74.80
2018-06-20T04:53:09.388Z,75.10
2018-06-20T04:55:44.528Z,74.40
2018-06-20T04:58:19.744Z,75.30
2018-06-20T05:00:54.767Z,75.20
2018-06-20T05:03:29.912Z,76.10
2018-06-20T05:06:04.997Z,76.00
2018-06-20T05:08:39.897Z,76.90
2018-06-20T05:11:15.066Z,76.40
2018-06-20T05:13:50.139Z,75.80
2018-06-20T05:16:26.142Z,75.30
2018-06-20T05:19:02.009Z,74.20
2018-06-20T05:21:43.242Z,73.90
2018-06-20T05:24:19.111Z,75.80
2018-06-20T05:26:54.267Z,75.80
2018-06-20T05:29:29.960Z,77.60
2018-06-20T05:32:06.706Z,77.30
2018-06-20T05:34:42.855Z,78.10
2018-06-20T05:37:17.905Z,75.90
2018-06-20T05:39:52.832Z,74.60
2018-06-20T05:42:27.788Z,73.70
2018-06-20T05:45:03.596Z,74.00
2018-06-20T05:47:39.999Z,73.70
2018-06-20T05:50:15.349Z,73.50
2018-06-20T05:52:51.294Z,73.50
2018-06-20T05:55:29.089Z,72.90
2018-06-20T05:58:09.200Z,72.40
2018-06-20T06:03:19.295Z,72.90
2018-06-20T06:06:13.889Z,77.50
2018-06-20T06:08:49.028Z,78.50
2018-06-20T06:11:24.140Z,77.60
2018-06-20T06:13:59.112Z,78.00
2018-06-20T06:16:34.121Z,78.60
2018-06-20T06:19:09.201Z,81.70
2018-06-20T06:21:44.432Z,80.40
2018-06-20T06:24:19.668Z,80.20
2018-06-20T06:26:54.639Z,81.60
2018-06-20T06:29:29.768Z,81.80
2018-06-20T06:32:04.976Z,82.40
2018-06-20T06:34:40.676Z,82.80
2018-06-20T06:37:15.847Z,82.70
2018-06-20T06:39:50.898Z,81.60
2018-06-20T06:42:26.047Z,81.30
2018-06-20T06:45:01.048Z,80.00
2018-06-20T06:47:36.192Z,81.40
2018-06-20T06:50:11.195Z,82.90
2018-06-20T06:52:46.185Z,83.90
2018-06-20T06:55:21.400Z,83.40
2018-06-20T06:57:56.340Z,83.00
2018-06-20T07:00:31.560Z,82.60
2018-06-20T07:03:06.820Z,82.50
2018-06-20T07:05:41.956Z,83.70
2018-06-20T07:08:17.064Z,83.10
2018-06-20T07:10:52.112Z,83.20
2018-06-20T07:13:27.178Z,82.30
2018-06-20T07:16:02.196Z,83.20
2018-06-20T07:18:37.275Z,82.50
2018-06-20T07:21:12.364Z,82.90
2018-06-20T07:23:47.540Z,83.00
2018-06-20T07:26:22.528Z,82.90
2018-06-20T07:28:57.599Z,81.60
2018-06-20T07:31:32.575Z,82.10
2018-06-20T07:34:07.712Z,81.60
2018-06-20T07:36:42.837Z,82.90
2018-06-20T07:39:18.021Z,82.90
2018-06-20T07:41:53.110Z,82.70
2018-06-20T07:44:28.112Z,81.50
2018-06-20T07:47:03.286Z,81.00
2018-06-20T07:49:38.302Z,81.60
2018-06-20T07:52:13.280Z,82.30
2018-06-20T07:54:48.232Z,81.60
2018-06-20T07:57:23.375Z,81.40
2018-06-20T08:00:03.911Z,80.00
2018-06-20T08:03:18.180Z,79.40
2018-06-20T08:05:58.676Z,79.50
2018-06-20T08:08:39.204Z,80.20
2018-06-20T08:11:19.801Z,80.70
2018-06-20T08:14:00.067Z,81.10
2018-06-20T08:16:40.658Z,80.50
2018-06-20T08:19:21.117Z,79.10
2018-06-20T08:21:56.116Z,78.20
2018-06-20T08:24:31.184Z,78.80
2018-06-20T08:29:40.868Z,79.50
2018-06-20T08:32:15.979Z,79.20
2018-06-20T08:34:50.921Z,79.30
2018-06-20T08:37:26.069Z,78.80
2018-06-20T08:40:01.161Z,77.50
2018-06-20T08:42:36.156Z,78.10
2018-06-20T08:45:11.196Z,78.00
2018-06-20T08:47:46.256Z,78.40
2018-06-20T08:50:21.343Z,78.80
2018-06-20T08:52:56.481Z,79.10
2018-06-20T08:55:31.608Z,77.80
2018-06-20T09:01:13.193Z,75.70
2018-06-20T09:03:48.187Z,74.60
2018-06-20T09:06:28.865Z,74.90
2018-06-20T09:09:11.152Z,74.50
2018-06-20T09:11:51.548Z,74.50
2018-06-20T09:14:26.550Z,74.70
2018-06-20T09:17:06.857Z,75.40
2018-06-20T09:19:45.135Z,75.90
2018-06-20T09:22:20.088Z,76.20
2018-06-20T09:24:55.237Z,75.10
2018-06-20T09:27:30.308Z,74.50
2018-06-20T09:30:05.348Z,74.10
2018-06-20T09:32:40.406Z,75.00
2018-06-20T09:35:15.444Z,75.00
2018-06-20T09:37:50.580Z,73.90
2018-06-20T09:40:25.763Z,72.70
2018-06-20T09:43:00.724Z,72.50
2018-06-20T09:45:35.764Z,72.20
2018-06-20T09:48:10.872Z,73.50
2018-06-20T09:50:51.084Z,71.60
2018-06-20T09:53:26.436Z,70.90
2018-06-20T09:56:01.373Z,70.40
2018-06-20T09:58:36.312Z,69.30
2018-06-20T10:01:16.860Z,69.60
2018-06-20T10:03:57.328Z,68.70
2018-06-20T10:09:18.207Z,69.50
2018-06-20T10:11:58.619Z,68.70
2018-06-20T10:14:33.591Z,69.20
2018-06-20T10:17:08.573Z,69.50
2018-06-20T10:19:43.671Z,70.20
2018-06-20T10:22:18.798Z,70.20
2018-06-20T10:24:53.734Z,70.30
2018-06-20T10:27:28.780Z,69.00
2018-06-20T10:30:04.024Z,68.60
2018-06-20T10:32:39.172Z,68.20
2018-06-20T10:35:14.193Z,68.00
2018-06-20T10:37:49.339Z,68.20
2018-06-20T10:42:59.090Z,67.50
2018-06-20T10:45:39.631Z,67.40
2018-06-20T10:48:15.732Z,67.60
2018-06-20T10:50:50.785Z,67.40
2018-06-20T10:53:25.848Z,67.00
2018-06-20T10:56:00.860Z,67.00
2018-06-20T10:58:41.311Z,66.90
2018-06-20T11:01:21.856Z,68.00
2018-06-20T11:04:02.165Z,67.30
2018-06-20T11:08:45.427Z,68.40
2018-06-20T11:11:25.848Z,66.70
2018-06-20T11:14:01.013Z,66.90
2018-06-20T11:16:36.216Z,66.30
2018-06-20T11:19:11.143Z,67.30
2018-06-20T11:21:46.148Z,65.90
2018-06-20T11:24:21.222Z,66.30
2018-06-20T11:26:56.235Z,65.90
2018-06-20T11:29:31.180Z,65.50
2018-06-20T11:32:06.261Z,65.50
2018-06-20T11:34:41.364Z,65.50
2018-06-20T11:37:16.465Z,65.80
2018-06-20T11:39:51.548Z,65.30
2018-06-20T11:42:26.764Z,64.40
2018-06-20T11:45:01.878Z,64.30
2018-06-20T11:47:43.813Z,64.40
2018-06-20T11:50:18.851Z,64.90
2018-06-20T11:52:59.387Z,64.70
2018-06-20T11:55:35.276Z,64.50
2018-06-20T11:58:16.608Z,64.80
2018-06-20T12:00:57.032Z,64.90
2018-06-20T12:03:37.492Z,64.10
2018-06-20T12:06:17.960Z,63.70
2018-06-20T12:08:58.479Z,63.70
2018-06-20T12:11:39.060Z,63.80
2018-06-20T12:14:19.344Z,64.50
2018-06-20T12:16:53.948Z,63.30
2018-06-20T12:19:34.269Z,63.40
2018-06-20T12:22:14.544Z,63.50
2018-06-20T12:24:54.775Z,62.50
2018-06-20T12:27:35.066Z,62.60
2018-06-20T12:30:15.565Z,61.90
2018-06-20T12:32:55.856Z,61.80
2018-06-20T12:35:36.291Z,61.50
2018-06-20T12:38:16.785Z,62.50
2018-06-20T12:40:57.459Z,62.50
2018-06-20T12:43:37.816Z,61.70
2018-06-20T12:46:18.318Z,61.70
2018-06-20T12:48:53.433Z,61.10
2018-06-20T12:51:28.308Z,61.20
2018-06-20T12:54:03.437Z,61.90
2018-06-20T12:56:38.448Z,61.20
2018-06-20T12:59:13.400Z,61.60
2018-06-20T13:01:48.386Z,61.20
2018-06-20T13:04:23.468Z,61.00
2018-06-20T13:06:58.573Z,61.60
2018-06-20T13:09:33.680Z,61.20
2018-06-20T13:12:08.770Z,61.10
2018-06-20T13:14:43.888Z,61.20
2018-06-20T13:17:18.995Z,60.50
2018-06-20T13:19:53.992Z,61.00
2018-06-20T13:22:29.202Z,60.90
2018-06-20T13:25:04.314Z,61.20
2018-06-20T13:27:44.920Z,60.80
2018-06-20T13:30:20.012Z,60.70
2018-06-20T13:33:02.179Z,61.80
2018-06-20T13:35:42.445Z,60.20
2018-06-20T13:38:22.907Z,60.70
2018-06-20T13:41:03.614Z,59.70
2018-06-20T13:43:44.069Z,59.70
2018-06-20T13:46:24.488Z,59.40
2018-06-20T13:48:59.532Z,59.40
2018-06-20T13:51:34.640Z,59.30
2018-06-20T13:54:09.731Z,58.70
2018-06-20T13:56:44.984Z,59.70
2018-06-20T13:59:20.791Z,60.00
2018-06-20T14:01:55.831Z,59.40
2018-06-20T14:04:30.813Z,58.90
2018-06-20T14:07:05.880Z,59.10
2018-06-20T14:09:40.992Z,59.10
2018-06-20T14:12:15.967Z,59.20
2018-06-20T14:14:51.464Z,58.90
2018-06-20T14:17:26.737Z,58.50
2018-06-20T14:20:07.400Z,58.30
2018-06-20T14:22:45.310Z,58.30
2018-06-20T14:25:20.565Z,58.10
2018-06-20T14:27:55.587Z,58.60
2018-06-20T14:30:36.181Z,57.80
2018-06-20T14:33:16.648Z,57.80
2018-06-20T14:35:57.492Z,58.00
2018-06-20T14:38:38.150Z,57.70
2018-06-20T14:41:16.880Z,58.00
2018-06-20T14:43:57.692Z,58.10
2018-06-20T14:46:32.876Z,58.00
2018-06-20T14:49:07.864Z,57.90
2018-06-20T14:51:42.872Z,57.50
2018-06-20T14:54:17.928Z,58.10
2018-06-20T14:56:52.931Z,57.40
2018-06-20T14:59:27.982Z,57.50
2018-06-20T15:02:02.986Z,56.60
2018-06-20T15:04:38.024Z,56.50
2018-06-20T15:07:13.117Z,57.40
2018-06-20T15:09:48.230Z,57.30
2018-06-20T15:12:23.300Z,56.70
2018-06-20T15:17:33.094Z,57.80
2018-06-20T15:20:08.037Z,57.20
2018-06-20T15:22:48.703Z,57.60
2018-06-20T15:25:28.947Z,56.60
2018-06-20T15:28:09.519Z,56.20
2018-06-20T15:30:49.784Z,56.80
2018-06-20T15:33:30.272Z,56.30
2018-06-20T15:36:10.918Z,56.00
2018-06-20T15:38:46.057Z,56.60
2018-06-20T15:41:21.149Z,56.70
2018-06-20T15:43:56.332Z,56.90
2018-06-20T15:46:31.351Z,56.60
2018-06-20T15:49:06.452Z,55.90
2018-06-20T15:51:41.618Z,55.60
2018-06-20T15:54:16.658Z,56.20
2018-06-20T15:56:51.732Z,55.00
2018-06-20T15:59:27.212Z,55.00
2018-06-20T16:02:02.668Z,55.30
2018-06-20T16:07:12.305Z,54.60
2018-06-20T16:09:52.807Z,55.10
2018-06-20T16:12:28.052Z,54.50
2018-06-20T16:15:03.192Z,54.60
2018-06-20T16:17:38.353Z,54.80
2018-06-20T16:20:18.868Z,54.80
2018-06-20T16:22:59.516Z,55.00
2018-06-20T16:25:39.825Z,55.70
2018-06-20T16:28:20.147Z,55.30
2018-06-20T16:30:55.196Z,55.70
2018-06-20T16:33:30.151Z,55.30
2018-06-20T16:36:05.380Z,55.40
2018-06-20T16:38:40.434Z,54.90
2018-06-20T16:43:50.206Z,54.40
2018-06-20T16:46:25.720Z,53.90
2018-06-20T16:49:00.887Z,55.20
2018-06-20T16:51:36.200Z,52.00
2018-06-20T16:54:11.332Z,51.80
2018-06-20T16:56:46.441Z,50.60
2018-06-20T16:59:22.395Z,51.10
2018-06-20T17:02:02.776Z,54.20
2018-06-20T17:07:16.916Z,51.10
2018-06-20T17:09:51.999Z,50.10
2018-06-20T17:12:32.455Z,52.20
2018-06-20T17:15:12.989Z,52.30
2018-06-20T17:17:53.575Z,52.80
2018-06-20T17:20:33.980Z,53.20
2018-06-20T17:23:14.189Z,52.90
2018-06-20T17:25:49.244Z,53.50
2018-06-20T17:28:24.364Z,53.40
2018-06-20T17:30:59.400Z,53.30
2018-06-20T17:33:34.423Z,53.30
2018-06-20T17:36:09.393Z,53.70
2018-06-20T17:38:44.360Z,53.50
2018-06-20T17:41:19.405Z,53.70
2018-06-20T17:43:54.540Z,54.20
2018-06-20T17:46:29.620Z,54.00
2018-06-20T17:49:04.848Z,54.40
2018-06-20T17:51:39.949Z,54.70
2018-06-20T17:54:15.059Z,54.50
2018-06-20T17:56:50.155Z,54.10
2018-06-20T17:59:25.259Z,54.80
2018-06-20T18:02:00.368Z,55.40
2018-06-20T18:04:40.856Z,55.00
2018-06-20T18:07:21.200Z,54.70
2018-06-20T18:10:01.717Z,54.40
2018-06-20T18:12:42.233Z,54.60
2018-06-20T18:15:22.848Z,53.80
2018-06-20T18:17:57.806Z,54.30
2018-06-20T18:20:32.837Z,54.30
2018-06-20T18:23:07.788Z,54.90
2018-06-20T18:25:42.900Z,54.40
2018-06-20T18:28:17.891Z,54.70
2018-06-20T18:33:27.592Z,54.80
2018-06-20T18:36:02.597Z,55.20
2018-06-20T18:38:37.575Z,55.10
2018-06-20T18:41:12.788Z,54.60
2018-06-20T18:43:47.888Z,54.60
2018-06-20T18:46:23.048Z,55.30
2018-06-20T18:48:58.137Z,55.50
2018-06-20T18:51:33.225Z,55.70
2018-06-20T18:54:08.392Z,55.90
2018-06-20T18:56:43.502Z,55.90
2018-06-20T18:59:23.958Z,56.20
2018-06-20T19:02:05.216Z,56.20
2018-06-20T19:04:46.010Z,56.80
2018-06-20T19:07:28.531Z,56.80
2018-06-20T19:10:03.666Z,57.80
2018-06-20T19:12:39.104Z,58.00
2018-06-20T19:15:14.283Z,58.00
2018-06-20T19:17:49.355Z,58.70
2018-06-20T19:20:24.554Z,58.40
2018-06-20T19:22:59.624Z,58.50
2018-06-20T19:25:35.255Z,58.20
2018-06-20T19:28:10.487Z,58.70
2018-06-20T19:30:46.254Z,58.30
2018-06-20T19:33:21.532Z,58.00
2018-06-20T19:35:56.611Z,57.90
2018-06-20T19:38:32.282Z,58.40
2018-06-20T19:41:07.855Z,58.20
2018-06-20T19:43:48.332Z,58.20
2018-06-20T19:46:23.332Z,58.50
2018-06-20T19:48:58.480Z,58.30
2018-06-20T19:51:33.473Z,58.50
2018-06-20T19:54:08.459Z,58.50
2018-06-20T19:56:43.502Z,58.40
2018-06-20T19:59:18.424Z,58.30
2018-06-20T20:01:54.019Z,58.20
2018-06-20T20:04:30.108Z,58.20
2018-06-20T20:07:05.244Z,58.30
2018-06-20T20:09:40.367Z,58.40
2018-06-20T20:12:15.572Z,58.50
2018-06-20T20:14:50.561Z,58.50
2018-06-20T20:17:25.575Z,58.60
2018-06-20T20:20:00.543Z,58.70
2018-06-20T20:22:35.512Z,58.80
2018-06-20T20:25:10.528Z,58.80
2018-06-20T20:27:45.619Z,58.80
2018-06-20T20:30:20.574Z,58.90
2018-06-20T20:32:55.736Z,59.00
2018-06-20T20:35:30.780Z,59.20
2018-06-20T20:38:05.973Z,59.20
2018-06-20T20:40:40.908Z,59.30
2018-06-20T20:43:16.003Z,59.30
2018-06-20T20:45:51.047Z,59.40
2018-06-20T20:48:26.188Z,59.40
2018-06-20T20:53:35.897Z,59.50
2018-06-20T20:56:10.955Z,59.60
2018-06-20T20:58:45.939Z,59.60
2018-06-20T21:01:21.044Z,59.70
2018-06-20T21:03:56.016Z,59.80
2018-06-20T21:06:31.065Z,59.80
2018-06-20T21:09:07.016Z,59.90
2018-06-20T21:11:42.104Z,59.90
2018-06-20T21:14:17.009Z,59.90
2018-06-20T21:16:52.112Z,59.90
2018-06-20T21:19:27.228Z,59.90
2018-06-20T21:22:02.315Z,60.00
2018-06-20T21:24:37.260Z,60.10
2018-06-20T21:27:12.272Z,60.20
2018-06-20T21:29:47.380Z,60.30
2018-06-20T21:32:22.656Z,60.40
2018-06-20T21:34:57.756Z,60.50
2018-06-20T21:37:32.983Z,60.60
2018-06-20T21:40:09.132Z,60.70
2018-06-20T21:42:44.238Z,60.70
2018-06-20T21:45:19.352Z,61.30
2018-06-20T21:47:54.488Z,60.90
2018-06-20T21:50:29.399Z,60.90
2018-06-20T21:53:04.585Z,61.00
2018-06-20T21:55:39.612Z,60.90
2018-06-20T21:58:14.732Z,61.00
2018-06-20T22:00:49.777Z,61.10
2018-06-20T22:03:24.860Z,61.20
2018-06-20T22:05:59.805Z,61.30
2018-06-20T22:08:34.863Z,61.30
2018-06-20T22:11:09.868Z,61.40
2018-06-20T22:13:44.940Z,62.30
2018-06-20T22:16:20.073Z,61.60
2018-06-20T22:18:55.037Z,61.60
2018-06-20T22:21:30.036Z,62.00
2018-06-20T22:24:05.208Z,61.60
2018-06-20T22:26:40.211Z,61.70
2018-06-20T22:29:15.291Z,61.60
2018-06-20T22:31:50.467Z,61.70
2018-06-20T22:34:25.683Z,61.70
2018-06-20T22:37:00.634Z,61.70
2018-06-20T22:39:35.684Z,61.80
2018-06-20T22:42:10.811Z,61.90
2018-06-20T22:44:45.872Z,61.90
2018-06-20T22:47:20.847Z,61.90
2018-06-20T22:49:55.956Z,61.90
2018-06-20T22:52:30.883Z,62.00
2018-06-20T22:55:05.972Z,62.00
2018-06-20T22:57:41.001Z,62.00
2018-06-20T23:02:50.644Z,62.00
2018-06-20T23:05:25.730Z,62.10
2018-06-20T23:08:00.798Z,62.10
2018-06-20T23:10:35.723Z,62.60
2018-06-20T23:13:10.757Z,62.10
2018-06-20T23:15:45.752Z,62.20
2018-06-20T23:18:20.893Z,62.10
2018-06-20T23:20:55.868Z,62.10
2018-06-20T23:23:31.000Z,62.10
2018-06-20T23:26:06.094Z,62.10
2018-06-20T23:28:41.268Z,62.20
2018-06-20T23:31:16.384Z,62.20
2018-06-20T23:33:51.715Z,62.30
2018-06-20T23:36:26.675Z,62.30
2018-06-20T23:39:01.745Z,62.30
2018-06-20T23:41:37.224Z,62.30
2018-06-20T23:44:12.315Z,62.30
2018-06-20T23:46:47.770Z,62.40
2018-06-20T23:49:22.844Z,62.50
2018-06-20T23:51:57.879Z,62.50
2018-06-20T23:54:32.995Z,62.50
2018-06-20T23:57:08.048Z,62.50
2018-06-20T23:59:42.987Z,62.50
